sensor_id;sensor_type;location;lat;lon;timestamp;temperature;humidity
22130;DHT22;11231;50.746;4.272;2023-09-08T00:00:57;21.30;99.90
22130;DHT22;11231;50.746;4.272;2023-09-08T00:03:23;21.30;99.90
22130;DHT22;11231;50.746;4.272;2023-09-08T00:05:49;21.20;99.90
22130;DHT22;11231;50.746;4.272;2023-09-08T00:08:15;21.10;99.90
22130;DHT22;11231;50.746;4.272;2023-09-08T00:10:42;21.00;99.90
22130;DHT22;11231;50.746;4.272;2023-09-08T00:13:07;21.00;99.90
22130;DHT22;11231;50.746;4.272;2023-09-08T00:15:34;21.00;99.90
22130;DHT22;11231;50.746;4.272;2023-09-08T00:18:02;21.10;99.90
22130;DHT22;11231;50.746;4.272;2023-09-08T00:20:28;21.20;99.90
22130;DHT22;11231;50.746;4.272;2023-09-08T00:22:54;21.20;99.90
22130;DHT22;11231;50.746;4.272;2023-09-08T00:25:20;21.20;99.90
22130;DHT22;11231;50.746;4.272;2023-09-08T00:27:46;21.20;99.90
22130;DHT22;11231;50.746;4.272;2023-09-08T00:30:12;21.10;99.90
22130;DHT22;11231;50.746;4.272;2023-09-08T00:32:38;21.10;99.90
22130;DHT22;11231;50.746;4.272;2023-09-08T00:35:06;21.10;99.90
22130;DHT22;11231;50.746;4.272;2023-09-08T00:37:33;21.10;99.90
22130;DHT22;11231;50.746;4.272;2023-09-08T00:39:59;21.00;99.90
22130;DHT22;11231;50.746;4.272;2023-09-08T00:42:25;20.90;99.90
22130;DHT22;11231;50.746;4.272;2023-09-08T00:44:51;20.90;99.90
22130;DHT22;11231;50.746;4.272;2023-09-08T00:47:17;20.90;99.90
22130;DHT22;11231;50.746;4.272;2023-09-08T00:49:43;20.90;99.90
22130;DHT22;11231;50.746;4.272;2023-09-08T00:52:09;20.90;99.90
22130;DHT22;11231;50.746;4.272;2023-09-08T00:54:35;21.00;99.90
22130;DHT22;11231;50.746;4.272;2023-09-08T00:57:02;21.00;99.90
22130;DHT22;11231;50.746;4.272;2023-09-08T00:59:31;21.00;99.90
22130;DHT22;11231;50.746;4.272;2023-09-08T01:01:57;20.80;99.90
22130;DHT22;11231;50.746;4.272;2023-09-08T01:04:23;20.70;99.90
22130;DHT22;11231;50.746;4.272;2023-09-08T01:06:49;20.60;99.90
22130;DHT22;11231;50.746;4.272;2023-09-08T01:09:16;20.60;99.90
22130;DHT22;11231;50.746;4.272;2023-09-08T01:11:43;20.60;99.90
22130;DHT22;11231;50.746;4.272;2023-09-08T01:14:11;20.60;99.90
22130;DHT22;11231;50.746;4.272;2023-09-08T01:16:37;20.70;99.90
22130;DHT22;11231;50.746;4.272;2023-09-08T01:19:04;20.70;99.90
22130;DHT22;11231;50.746;4.272;2023-09-08T01:21:57;20.70;99.90
22130;DHT22;11231;50.746;4.272;2023-09-08T01:27:02;20.70;99.90
22130;DHT22;11231;50.746;4.272;2023-09-08T01:29:29;20.70;99.90
22130;DHT22;11231;50.746;4.272;2023-09-08T01:31:55;20.70;99.90
22130;DHT22;11231;50.746;4.272;2023-09-08T01:34:22;20.70;99.90
22130;DHT22;11231;50.746;4.272;2023-09-08T01:36:48;20.70;99.90
22130;DHT22;11231;50.746;4.272;2023-09-08T01:39:14;20.70;99.90
22130;DHT22;11231;50.746;4.272;2023-09-08T01:41:40;20.70;99.90
22130;DHT22;11231;50.746;4.272;2023-09-08T01:44:06;20.60;99.90
22130;DHT22;11231;50.746;4.272;2023-09-08T01:46:35;20.50;99.90
22130;DHT22;11231;50.746;4.272;2023-09-08T01:49:01;20.60;99.90
22130;DHT22;11231;50.746;4.272;2023-09-08T01:51:27;20.50;99.90
22130;DHT22;11231;50.746;4.272;2023-09-08T01:53:53;20.50;99.90
22130;DHT22;11231;50.746;4.272;2023-09-08T01:56:18;20.40;99.90
22130;DHT22;11231;50.746;4.272;2023-09-08T01:58:44;20.40;99.90
22130;DHT22;11231;50.746;4.272;2023-09-08T02:01:10;20.40;99.90
22130;DHT22;11231;50.746;4.272;2023-09-08T02:03:36;20.40;99.90
22130;DHT22;11231;50.746;4.272;2023-09-08T02:06:02;20.30;99.90
22130;DHT22;11231;50.746;4.272;2023-09-08T02:08:28;20.20;99.90
22130;DHT22;11231;50.746;4.272;2023-09-08T02:10:53;20.20;99.90
22130;DHT22;11231;50.746;4.272;2023-09-08T02:13:19;20.30;99.90
22130;DHT22;11231;50.746;4.272;2023-09-08T02:15:45;20.20;99.90
22130;DHT22;11231;50.746;4.272;2023-09-08T02:18:11;20.20;99.90
22130;DHT22;11231;50.746;4.272;2023-09-08T02:20:39;20.20;99.90
22130;DHT22;11231;50.746;4.272;2023-09-08T02:23:06;20.20;99.90
22130;DHT22;11231;50.746;4.272;2023-09-08T02:25:33;20.20;99.90
22130;DHT22;11231;50.746;4.272;2023-09-08T02:27:59;20.20;99.90
22130;DHT22;11231;50.746;4.272;2023-09-08T02:30:25;20.20;99.90
22130;DHT22;11231;50.746;4.272;2023-09-08T02:32:52;20.00;99.90
22130;DHT22;11231;50.746;4.272;2023-09-08T02:35:17;19.90;99.90
22130;DHT22;11231;50.746;4.272;2023-09-08T02:37:43;19.90;99.90
22130;DHT22;11231;50.746;4.272;2023-09-08T02:40:09;19.90;99.90
22130;DHT22;11231;50.746;4.272;2023-09-08T02:42:36;19.90;99.90
22130;DHT22;11231;50.746;4.272;2023-09-08T02:45:02;19.90;99.90
22130;DHT22;11231;50.746;4.272;2023-09-08T02:47:28;19.90;99.90
22130;DHT22;11231;50.746;4.272;2023-09-08T02:49:54;19.90;99.90
22130;DHT22;11231;50.746;4.272;2023-09-08T02:52:20;19.90;99.90
22130;DHT22;11231;50.746;4.272;2023-09-08T02:54:46;19.90;99.90
22130;DHT22;11231;50.746;4.272;2023-09-08T02:57:12;19.90;99.90
22130;DHT22;11231;50.746;4.272;2023-09-08T02:59:38;19.90;99.90
22130;DHT22;11231;50.746;4.272;2023-09-08T03:02:04;20.00;99.90
22130;DHT22;11231;50.746;4.272;2023-09-08T03:04:30;20.00;99.90
22130;DHT22;11231;50.746;4.272;2023-09-08T03:06:56;20.00;99.90
22130;DHT22;11231;50.746;4.272;2023-09-08T03:09:22;20.00;99.90
22130;DHT22;11231;50.746;4.272;2023-09-08T03:11:48;20.00;99.90
22130;DHT22;11231;50.746;4.272;2023-09-08T03:14:13;20.10;99.90
22130;DHT22;11231;50.746;4.272;2023-09-08T03:16:39;20.00;99.90
22130;DHT22;11231;50.746;4.272;2023-09-08T03:19:05;19.90;99.90
22130;DHT22;11231;50.746;4.272;2023-09-08T03:21:31;20.00;99.90
22130;DHT22;11231;50.746;4.272;2023-09-08T03:23:57;20.00;99.90
22130;DHT22;11231;50.746;4.272;2023-09-08T03:26:22;19.90;99.90
22130;DHT22;11231;50.746;4.272;2023-09-08T03:28:49;19.90;99.90
22130;DHT22;11231;50.746;4.272;2023-09-08T03:31:15;19.90;99.90
22130;DHT22;11231;50.746;4.272;2023-09-08T03:33:41;19.90;99.90
22130;DHT22;11231;50.746;4.272;2023-09-08T03:36:09;19.80;99.90
22130;DHT22;11231;50.746;4.272;2023-09-08T03:38:37;19.80;99.90
22130;DHT22;11231;50.746;4.272;2023-09-08T03:41:03;19.80;99.90
22130;DHT22;11231;50.746;4.272;2023-09-08T03:43:29;19.70;99.90
22130;DHT22;11231;50.746;4.272;2023-09-08T03:45:56;19.60;99.90
22130;DHT22;11231;50.746;4.272;2023-09-08T03:48:22;19.70;99.90
22130;DHT22;11231;50.746;4.272;2023-09-08T03:50:49;19.60;99.90
22130;DHT22;11231;50.746;4.272;2023-09-08T03:53:15;19.60;99.90
22130;DHT22;11231;50.746;4.272;2023-09-08T03:55:47;19.60;99.90
22130;DHT22;11231;50.746;4.272;2023-09-08T03:58:14;19.70;99.90
22130;DHT22;11231;50.746;4.272;2023-09-08T04:00:41;19.60;99.90
22130;DHT22;11231;50.746;4.272;2023-09-08T04:03:08;19.60;99.90
22130;DHT22;11231;50.746;4.272;2023-09-08T04:05:33;19.50;99.90
22130;DHT22;11231;50.746;4.272;2023-09-08T04:07:59;19.40;99.90
22130;DHT22;11231;50.746;4.272;2023-09-08T04:10:25;19.50;99.90
22130;DHT22;11231;50.746;4.272;2023-09-08T04:12:51;19.50;99.90
22130;DHT22;11231;50.746;4.272;2023-09-08T04:15:17;19.60;99.90
22130;DHT22;11231;50.746;4.272;2023-09-08T04:17:43;19.60;99.90
22130;DHT22;11231;50.746;4.272;2023-09-08T04:20:09;19.60;99.90
22130;DHT22;11231;50.746;4.272;2023-09-08T04:22:35;19.50;99.90
22130;DHT22;11231;50.746;4.272;2023-09-08T04:25:01;19.50;99.90
22130;DHT22;11231;50.746;4.272;2023-09-08T04:27:28;19.50;99.90
22130;DHT22;11231;50.746;4.272;2023-09-08T04:29:53;19.50;99.90
22130;DHT22;11231;50.746;4.272;2023-09-08T04:32:19;19.60;99.90
22130;DHT22;11231;50.746;4.272;2023-09-08T04:34:45;19.60;99.90
22130;DHT22;11231;50.746;4.272;2023-09-08T04:37:11;19.60;99.90
22130;DHT22;11231;50.746;4.272;2023-09-08T04:39:37;19.60;99.90
22130;DHT22;11231;50.746;4.272;2023-09-08T04:42:03;19.50;99.90
22130;DHT22;11231;50.746;4.272;2023-09-08T04:44:29;19.50;99.90
22130;DHT22;11231;50.746;4.272;2023-09-08T04:46:55;19.50;99.90
22130;DHT22;11231;50.746;4.272;2023-09-08T04:49:21;19.40;99.90
22130;DHT22;11231;50.746;4.272;2023-09-08T04:51:48;19.40;99.90
22130;DHT22;11231;50.746;4.272;2023-09-08T04:54:16;19.40;99.90
22130;DHT22;11231;50.746;4.272;2023-09-08T04:56:42;19.40;99.90
22130;DHT22;11231;50.746;4.272;2023-09-08T04:59:08;19.50;99.90
22130;DHT22;11231;50.746;4.272;2023-09-08T05:01:34;19.50;99.90
22130;DHT22;11231;50.746;4.272;2023-09-08T05:04:04;19.50;99.90
22130;DHT22;11231;50.746;4.272;2023-09-08T05:06:30;19.50;99.90
22130;DHT22;11231;50.746;4.272;2023-09-08T05:08:57;19.50;99.90
22130;DHT22;11231;50.746;4.272;2023-09-08T05:11:24;19.40;99.90
22130;DHT22;11231;50.746;4.272;2023-09-08T05:13:51;19.40;99.90
22130;DHT22;11231;50.746;4.272;2023-09-08T05:16:17;19.40;99.90
22130;DHT22;11231;50.746;4.272;2023-09-08T05:18:49;19.40;99.90
22130;DHT22;11231;50.746;4.272;2023-09-08T05:21:15;19.40;99.90
22130;DHT22;11231;50.746;4.272;2023-09-08T05:23:41;19.40;99.90
22130;DHT22;11231;50.746;4.272;2023-09-08T05:26:09;19.40;99.90
22130;DHT22;11231;50.746;4.272;2023-09-08T05:28:35;19.50;99.90
22130;DHT22;11231;50.746;4.272;2023-09-08T05:31:01;19.50;99.90
22130;DHT22;11231;50.746;4.272;2023-09-08T05:33:26;19.60;99.90
22130;DHT22;11231;50.746;4.272;2023-09-08T05:35:53;19.60;99.90
22130;DHT22;11231;50.746;4.272;2023-09-08T05:38:18;19.70;99.90
22130;DHT22;11231;50.746;4.272;2023-09-08T05:40:44;19.80;99.90
22130;DHT22;11231;50.746;4.272;2023-09-08T05:43:10;19.90;99.90
22130;DHT22;11231;50.746;4.272;2023-09-08T05:45:36;20.40;99.90
22130;DHT22;11231;50.746;4.272;2023-09-08T05:48:03;21.30;99.90
22130;DHT22;11231;50.746;4.272;2023-09-08T05:50:29;22.10;99.90
22130;DHT22;11231;50.746;4.272;2023-09-08T05:52:58;22.80;99.90
22130;DHT22;11231;50.746;4.272;2023-09-08T05:55:24;23.40;99.90
22130;DHT22;11231;50.746;4.272;2023-09-08T05:57:49;23.70;99.90
22130;DHT22;11231;50.746;4.272;2023-09-08T06:00:15;24.10;99.90
22130;DHT22;11231;50.746;4.272;2023-09-08T06:02:46;24.40;99.90
22130;DHT22;11231;50.746;4.272;2023-09-08T06:05:14;24.90;99.90
22130;DHT22;11231;50.746;4.272;2023-09-08T06:07:40;25.50;99.90
22130;DHT22;11231;50.746;4.272;2023-09-08T06:10:08;26.00;99.90
22130;DHT22;11231;50.746;4.272;2023-09-08T06:12:34;26.30;99.90
22130;DHT22;11231;50.746;4.272;2023-09-08T06:15:02;26.10;99.90
22130;DHT22;11231;50.746;4.272;2023-09-08T06:17:29;25.70;99.90
22130;DHT22;11231;50.746;4.272;2023-09-08T06:19:55;25.10;99.90
22130;DHT22;11231;50.746;4.272;2023-09-08T06:22:22;24.60;99.90
22130;DHT22;11231;50.746;4.272;2023-09-08T06:24:48;24.10;99.90
22130;DHT22;11231;50.746;4.272;2023-09-08T06:27:15;23.80;99.90
22130;DHT22;11231;50.746;4.272;2023-09-08T06:29:41;23.60;99.90
22130;DHT22;11231;50.746;4.272;2023-09-08T06:32:10;23.40;99.90
22130;DHT22;11231;50.746;4.272;2023-09-08T06:34:38;23.30;99.90
22130;DHT22;11231;50.746;4.272;2023-09-08T06:37:04;23.10;99.90
22130;DHT22;11231;50.746;4.272;2023-09-08T06:39:30;23.00;99.90
22130;DHT22;11231;50.746;4.272;2023-09-08T06:41:56;22.90;99.90
22130;DHT22;11231;50.746;4.272;2023-09-08T06:44:22;23.20;99.90
22130;DHT22;11231;50.746;4.272;2023-09-08T06:46:48;24.70;99.90
22130;DHT22;11231;50.746;4.272;2023-09-08T06:49:14;26.80;99.90
22130;DHT22;11231;50.746;4.272;2023-09-08T06:51:40;28.90;99.90
22130;DHT22;11231;50.746;4.272;2023-09-08T06:54:06;30.50;99.90
22130;DHT22;11231;50.746;4.272;2023-09-08T06:56:37;32.00;99.90
22130;DHT22;11231;50.746;4.272;2023-09-08T06:59:04;33.00;99.90
22130;DHT22;11231;50.746;4.272;2023-09-08T07:01:30;34.20;99.90
22130;DHT22;11231;50.746;4.272;2023-09-08T07:03:56;34.90;99.90
22130;DHT22;11231;50.746;4.272;2023-09-08T07:06:22;35.60;99.90
22130;DHT22;11231;50.746;4.272;2023-09-08T07:08:49;35.60;99.90
22130;DHT22;11231;50.746;4.272;2023-09-08T07:11:17;35.20;99.90
22130;DHT22;11231;50.746;4.272;2023-09-08T07:13:43;35.30;99.90
22130;DHT22;11231;50.746;4.272;2023-09-08T07:16:09;35.20;99.90
22130;DHT22;11231;50.746;4.272;2023-09-08T07:18:36;35.60;99.90
22130;DHT22;11231;50.746;4.272;2023-09-08T07:21:04;37.00;99.90
22130;DHT22;11231;50.746;4.272;2023-09-08T07:23:30;37.80;99.00
22130;DHT22;11231;50.746;4.272;2023-09-08T07:25:56;37.80;97.10
22130;DHT22;11231;50.746;4.272;2023-09-08T07:28:26;38.20;96.50
22130;DHT22;11231;50.746;4.272;2023-09-08T07:30:53;38.50;95.00
22130;DHT22;11231;50.746;4.272;2023-09-08T07:33:20;39.10;93.80
22130;DHT22;11231;50.746;4.272;2023-09-08T07:35:49;39.80;92.30
22130;DHT22;11231;50.746;4.272;2023-09-08T07:38:14;40.20;91.00
22130;DHT22;11231;50.746;4.272;2023-09-08T07:40:41;40.40;90.20
22130;DHT22;11231;50.746;4.272;2023-09-08T07:43:07;40.90;87.60
22130;DHT22;11231;50.746;4.272;2023-09-08T07:45:33;41.60;85.30
22130;DHT22;11231;50.746;4.272;2023-09-08T07:47:59;42.20;80.80
22130;DHT22;11231;50.746;4.272;2023-09-08T07:50:27;42.30;78.90
22130;DHT22;11231;50.746;4.272;2023-09-08T07:52:56;42.50;75.60
22130;DHT22;11231;50.746;4.272;2023-09-08T07:55:22;42.40;75.00
22130;DHT22;11231;50.746;4.272;2023-09-08T07:57:49;42.50;74.80
22130;DHT22;11231;50.746;4.272;2023-09-08T08:00:16;42.90;73.80
22130;DHT22;11231;50.746;4.272;2023-09-08T08:02:46;43.50;71.00
22130;DHT22;11231;50.746;4.272;2023-09-08T08:05:12;43.50;68.50
22130;DHT22;11231;50.746;4.272;2023-09-08T08:07:39;43.70;68.40
22130;DHT22;11231;50.746;4.272;2023-09-08T08:10:06;44.20;68.20
22130;DHT22;11231;50.746;4.272;2023-09-08T08:12:32;44.00;66.70
22130;DHT22;11231;50.746;4.272;2023-09-08T08:14:58;44.00;65.90
22130;DHT22;11231;50.746;4.272;2023-09-08T08:17:24;44.20;64.90
22130;DHT22;11231;50.746;4.272;2023-09-08T08:19:52;44.40;63.50
22130;DHT22;11231;50.746;4.272;2023-09-08T08:22:18;44.30;63.60
22130;DHT22;11231;50.746;4.272;2023-09-08T08:24:44;43.90;64.00
22130;DHT22;11231;50.746;4.272;2023-09-08T08:27:10;44.40;63.80
22130;DHT22;11231;50.746;4.272;2023-09-08T08:29:35;44.70;63.90
22130;DHT22;11231;50.746;4.272;2023-09-08T08:32:01;45.20;62.60
22130;DHT22;11231;50.746;4.272;2023-09-08T08:34:27;45.60;61.50
22130;DHT22;11231;50.746;4.272;2023-09-08T08:36:53;46.10;60.90
22130;DHT22;11231;50.746;4.272;2023-09-08T08:39:20;46.60;59.80
22130;DHT22;11231;50.746;4.272;2023-09-08T08:41:45;46.90;59.10
22130;DHT22;11231;50.746;4.272;2023-09-08T08:44:11;47.20;58.70
22130;DHT22;11231;50.746;4.272;2023-09-08T08:46:37;47.20;57.90
22130;DHT22;11231;50.746;4.272;2023-09-08T08:49:04;47.10;57.50
22130;DHT22;11231;50.746;4.272;2023-09-08T08:51:33;47.30;56.90
22130;DHT22;11231;50.746;4.272;2023-09-08T08:54:01;47.70;56.20
22130;DHT22;11231;50.746;4.272;2023-09-08T08:56:31;47.80;56.10
22130;DHT22;11231;50.746;4.272;2023-09-08T08:59:01;47.70;56.10
22130;DHT22;11231;50.746;4.272;2023-09-08T09:01:27;46.90;55.50
22130;DHT22;11231;50.746;4.272;2023-09-08T09:03:54;46.50;56.90
22130;DHT22;11231;50.746;4.272;2023-09-08T09:06:20;46.90;56.80
22130;DHT22;11231;50.746;4.272;2023-09-08T09:08:46;47.40;56.20
22130;DHT22;11231;50.746;4.272;2023-09-08T09:11:12;47.40;55.50
22130;DHT22;11231;50.746;4.272;2023-09-08T09:13:38;47.50;55.30
22130;DHT22;11231;50.746;4.272;2023-09-08T09:16:05;47.80;55.50
22130;DHT22;11231;50.746;4.272;2023-09-08T09:18:53;47.80;54.50
22130;DHT22;11231;50.746;4.272;2023-09-08T09:21:21;47.00;54.50
22130;DHT22;11231;50.746;4.272;2023-09-08T09:23:47;44.90;56.20
22130;DHT22;11231;50.746;4.272;2023-09-08T09:26:23;42.60;59.50
22130;DHT22;11231;50.746;4.272;2023-09-08T09:28:49;40.50;62.60
22130;DHT22;11231;50.746;4.272;2023-09-08T09:31:18;39.20;66.20
22130;DHT22;11231;50.746;4.272;2023-09-08T09:33:44;38.00;69.20
22130;DHT22;11231;50.746;4.272;2023-09-08T09:36:20;37.10;71.30
22130;DHT22;11231;50.746;4.272;2023-09-08T09:38:47;36.30;75.00
22130;DHT22;11231;50.746;4.272;2023-09-08T09:41:13;35.70;77.80
22130;DHT22;11231;50.746;4.272;2023-09-08T09:43:39;35.30;81.90
22130;DHT22;11231;50.746;4.272;2023-09-08T09:46:07;35.40;82.20
22130;DHT22;11231;50.746;4.272;2023-09-08T09:48:35;36.90;79.90
22130;DHT22;11231;50.746;4.272;2023-09-08T09:51:15;38.90;75.70
22130;DHT22;11231;50.746;4.272;2023-09-08T09:53:43;40.80;71.70
22130;DHT22;11231;50.746;4.272;2023-09-08T09:56:10;42.40;68.10
22130;DHT22;11231;50.746;4.272;2023-09-08T09:58:37;43.60;64.70
22130;DHT22;11231;50.746;4.272;2023-09-08T10:01:04;44.60;64.30
22130;DHT22;11231;50.746;4.272;2023-09-08T10:03:30;45.30;61.50
22130;DHT22;11231;50.746;4.272;2023-09-08T10:05:58;45.60;60.10
22130;DHT22;11231;50.746;4.272;2023-09-08T10:08:24;46.20;59.60
22130;DHT22;11231;50.746;4.272;2023-09-08T10:10:50;46.90;58.50
22130;DHT22;11231;50.746;4.272;2023-09-08T10:13:26;47.10;57.20
22130;DHT22;11231;50.746;4.272;2023-09-08T10:15:57;47.10;57.00
22130;DHT22;11231;50.746;4.272;2023-09-08T10:18:24;47.20;56.90
22130;DHT22;11231;50.746;4.272;2023-09-08T10:20:53;47.40;57.40
22130;DHT22;11231;50.746;4.272;2023-09-08T10:23:23;47.20;56.70
22130;DHT22;11231;50.746;4.272;2023-09-08T10:25:55;47.40;56.60
22130;DHT22;11231;50.746;4.272;2023-09-08T10:28:22;47.50;56.40
22130;DHT22;11231;50.746;4.272;2023-09-08T10:30:49;47.30;55.60
22130;DHT22;11231;50.746;4.272;2023-09-08T10:33:16;46.70;56.10
22130;DHT22;11231;50.746;4.272;2023-09-08T10:35:43;47.40;55.80
22130;DHT22;11231;50.746;4.272;2023-09-08T10:38:25;47.50;55.70
22130;DHT22;11231;50.746;4.272;2023-09-08T10:40:52;47.60;54.00
22130;DHT22;11231;50.746;4.272;2023-09-08T10:43:19;47.50;53.90
22130;DHT22;11231;50.746;4.272;2023-09-08T10:45:46;46.80;53.90
22130;DHT22;11231;50.746;4.272;2023-09-08T10:48:13;47.00;55.00
22130;DHT22;11231;50.746;4.272;2023-09-08T10:50:41;47.30;54.80
22130;DHT22;11231;50.746;4.272;2023-09-08T10:53:16;47.40;52.00
22130;DHT22;11231;50.746;4.272;2023-09-08T10:55:47;47.50;52.40
22130;DHT22;11231;50.746;4.272;2023-09-08T10:58:32;47.50;52.40
22130;DHT22;11231;50.746;4.272;2023-09-08T11:01:01;47.50;52.70
22130;DHT22;11231;50.746;4.272;2023-09-08T11:06:12;48.20;51.50
22130;DHT22;11231;50.746;4.272;2023-09-08T11:08:42;47.70;49.00
22130;DHT22;11231;50.746;4.272;2023-09-08T11:11:12;46.70;50.40
22130;DHT22;11231;50.746;4.272;2023-09-08T11:13:39;46.00;50.90
22130;DHT22;11231;50.746;4.272;2023-09-08T11:16:11;46.10;52.20
22130;DHT22;11231;50.746;4.272;2023-09-08T11:18:37;46.00;51.50
22130;DHT22;11231;50.746;4.272;2023-09-08T11:21:07;46.10;51.60
22130;DHT22;11231;50.746;4.272;2023-09-08T11:23:34;46.20;53.30
22130;DHT22;11231;50.746;4.272;2023-09-08T11:26:00;46.20;53.00
22130;DHT22;11231;50.746;4.272;2023-09-08T11:28:27;46.60;52.90
22130;DHT22;11231;50.746;4.272;2023-09-08T11:30:54;47.20;52.90
22130;DHT22;11231;50.746;4.272;2023-09-08T11:33:22;46.20;52.40
22130;DHT22;11231;50.746;4.272;2023-09-08T11:35:52;46.50;53.70
22130;DHT22;11231;50.746;4.272;2023-09-08T11:38:19;46.40;52.50
22130;DHT22;11231;50.746;4.272;2023-09-08T11:40:45;45.60;52.00
22130;DHT22;11231;50.746;4.272;2023-09-08T11:43:11;46.00;54.80
22130;DHT22;11231;50.746;4.272;2023-09-08T11:45:37;45.90;52.90
22130;DHT22;11231;50.746;4.272;2023-09-08T11:48:06;46.00;54.30
22130;DHT22;11231;50.746;4.272;2023-09-08T11:50:32;46.20;54.10
22130;DHT22;11231;50.746;4.272;2023-09-08T11:52:57;46.00;53.10
22130;DHT22;11231;50.746;4.272;2023-09-08T11:55:25;45.80;52.70
22130;DHT22;11231;50.746;4.272;2023-09-08T11:57:55;45.30;53.00
22130;DHT22;11231;50.746;4.272;2023-09-08T12:00:24;45.40;53.10
22130;DHT22;11231;50.746;4.272;2023-09-08T12:02:51;45.70;54.40
22130;DHT22;11231;50.746;4.272;2023-09-08T12:05:23;45.60;54.60
22130;DHT22;11231;50.746;4.272;2023-09-08T12:07:57;45.40;52.90
22130;DHT22;11231;50.746;4.272;2023-09-08T12:10:24;44.60;54.30
22130;DHT22;11231;50.746;4.272;2023-09-08T12:12:54;44.50;54.70
22130;DHT22;11231;50.746;4.272;2023-09-08T12:15:34;44.90;55.00
22130;DHT22;11231;50.746;4.272;2023-09-08T12:18:01;44.90;53.50
22130;DHT22;11231;50.746;4.272;2023-09-08T12:20:27;44.80;54.10
22130;DHT22;11231;50.746;4.272;2023-09-08T12:22:54;45.00;56.50
22130;DHT22;11231;50.746;4.272;2023-09-08T12:25:19;44.80;52.30
22130;DHT22;11231;50.746;4.272;2023-09-08T12:27:46;44.30;54.20
22130;DHT22;11231;50.746;4.272;2023-09-08T12:30:22;43.60;54.40
22130;DHT22;11231;50.746;4.272;2023-09-08T12:32:56;43.30;55.90
22130;DHT22;11231;50.746;4.272;2023-09-08T12:35:23;43.20;56.50
22130;DHT22;11231;50.746;4.272;2023-09-08T12:38:03;42.70;56.40
22130;DHT22;11231;50.746;4.272;2023-09-08T12:40:34;42.30;56.10
22130;DHT22;11231;50.746;4.272;2023-09-08T12:43:00;41.90;58.10
22130;DHT22;11231;50.746;4.272;2023-09-08T12:45:27;41.50;57.50
22130;DHT22;11231;50.746;4.272;2023-09-08T12:47:54;40.90;59.00
22130;DHT22;11231;50.746;4.272;2023-09-08T12:50:27;40.20;59.60
22130;DHT22;11231;50.746;4.272;2023-09-08T12:52:53;39.70;60.10
22130;DHT22;11231;50.746;4.272;2023-09-08T12:55:19;39.30;61.00
22130;DHT22;11231;50.746;4.272;2023-09-08T12:57:45;39.00;61.60
22130;DHT22;11231;50.746;4.272;2023-09-08T13:00:13;38.60;62.50
22130;DHT22;11231;50.746;4.272;2023-09-08T13:02:39;38.20;62.60
22130;DHT22;11231;50.746;4.272;2023-09-08T13:05:05;37.90;64.70
22130;DHT22;11231;50.746;4.272;2023-09-08T13:07:31;37.40;64.50
22130;DHT22;11231;50.746;4.272;2023-09-08T13:09:57;37.10;64.90
22130;DHT22;11231;50.746;4.272;2023-09-08T13:12:23;36.50;66.40
22130;DHT22;11231;50.746;4.272;2023-09-08T13:14:48;36.40;69.40
22130;DHT22;11231;50.746;4.272;2023-09-08T13:17:14;36.30;69.70
22130;DHT22;11231;50.746;4.272;2023-09-08T13:19:41;36.10;70.80
22130;DHT22;11231;50.746;4.272;2023-09-08T13:22:07;36.00;68.90
22130;DHT22;11231;50.746;4.272;2023-09-08T13:24:33;35.90;72.10
22130;DHT22;11231;50.746;4.272;2023-09-08T13:27:03;35.80;71.70
22130;DHT22;11231;50.746;4.272;2023-09-08T13:29:29;35.50;70.20
22130;DHT22;11231;50.746;4.272;2023-09-08T13:31:55;35.30;73.40
22130;DHT22;11231;50.746;4.272;2023-09-08T13:34:24;35.20;71.70
22130;DHT22;11231;50.746;4.272;2023-09-08T13:36:50;34.90;74.70
22130;DHT22;11231;50.746;4.272;2023-09-08T13:39:16;34.80;75.50
22130;DHT22;11231;50.746;4.272;2023-09-08T13:41:52;34.80;78.30
22130;DHT22;11231;50.746;4.272;2023-09-08T13:44:19;34.80;74.10
22130;DHT22;11231;50.746;4.272;2023-09-08T13:46:49;34.50;76.20
22130;DHT22;11231;50.746;4.272;2023-09-08T13:49:15;34.40;78.30
22130;DHT22;11231;50.746;4.272;2023-09-08T13:51:41;34.40;79.00
22130;DHT22;11231;50.746;4.272;2023-09-08T13:54:08;34.40;79.90
22130;DHT22;11231;50.746;4.272;2023-09-08T13:56:34;34.50;79.30
22130;DHT22;11231;50.746;4.272;2023-09-08T13:59:01;34.50;78.60
22130;DHT22;11231;50.746;4.272;2023-09-08T14:01:27;34.30;79.10
22130;DHT22;11231;50.746;4.272;2023-09-08T14:03:55;34.30;78.10
22130;DHT22;11231;50.746;4.272;2023-09-08T14:06:22;34.10;81.80
22130;DHT22;11231;50.746;4.272;2023-09-08T14:08:48;34.10;80.60
22130;DHT22;11231;50.746;4.272;2023-09-08T14:11:14;34.10;78.10
22130;DHT22;11231;50.746;4.272;2023-09-08T14:13:40;33.90;79.40
22130;DHT22;11231;50.746;4.272;2023-09-08T14:16:05;33.80;80.70
22130;DHT22;11231;50.746;4.272;2023-09-08T14:18:31;33.60;80.50
22130;DHT22;11231;50.746;4.272;2023-09-08T14:20:57;33.40;84.60
22130;DHT22;11231;50.746;4.272;2023-09-08T14:23:23;33.30;82.90
22130;DHT22;11231;50.746;4.272;2023-09-08T14:25:49;33.40;81.80
22130;DHT22;11231;50.746;4.272;2023-09-08T14:28:15;33.50;83.50
22130;DHT22;11231;50.746;4.272;2023-09-08T14:30:40;33.60;83.70
22130;DHT22;11231;50.746;4.272;2023-09-08T14:33:09;33.70;84.50
22130;DHT22;11231;50.746;4.272;2023-09-08T14:35:35;33.70;83.60
22130;DHT22;11231;50.746;4.272;2023-09-08T14:38:00;33.70;87.30
22130;DHT22;11231;50.746;4.272;2023-09-08T14:40:26;33.70;85.20
22130;DHT22;11231;50.746;4.272;2023-09-08T14:42:52;33.60;86.30
22130;DHT22;11231;50.746;4.272;2023-09-08T14:45:18;33.60;86.50
22130;DHT22;11231;50.746;4.272;2023-09-08T14:47:44;33.60;88.70
22130;DHT22;11231;50.746;4.272;2023-09-08T14:50:10;33.70;86.20
22130;DHT22;11231;50.746;4.272;2023-09-08T14:52:36;33.80;85.80
22130;DHT22;11231;50.746;4.272;2023-09-08T14:55:02;33.60;88.10
22130;DHT22;11231;50.746;4.272;2023-09-08T14:57:28;33.60;86.60
22130;DHT22;11231;50.746;4.272;2023-09-08T14:59:53;33.60;86.80
22130;DHT22;11231;50.746;4.272;2023-09-08T15:02:21;33.60;86.60
22130;DHT22;11231;50.746;4.272;2023-09-08T15:04:48;33.40;87.60
22130;DHT22;11231;50.746;4.272;2023-09-08T15:07:14;33.30;87.00
22130;DHT22;11231;50.746;4.272;2023-09-08T15:09:39;33.10;90.50
22130;DHT22;11231;50.746;4.272;2023-09-08T15:12:06;33.20;90.70
22130;DHT22;11231;50.746;4.272;2023-09-08T15:14:31;33.30;91.10
22130;DHT22;11231;50.746;4.272;2023-09-08T15:16:57;33.30;90.00
22130;DHT22;11231;50.746;4.272;2023-09-08T15:19:23;33.30;90.70
22130;DHT22;11231;50.746;4.272;2023-09-08T15:21:49;33.30;90.30
22130;DHT22;11231;50.746;4.272;2023-09-08T15:24:15;33.20;90.90
22130;DHT22;11231;50.746;4.272;2023-09-08T15:26:41;33.10;91.30
22130;DHT22;11231;50.746;4.272;2023-09-08T15:29:07;33.20;90.60
22130;DHT22;11231;50.746;4.272;2023-09-08T15:31:33;33.30;90.90
22130;DHT22;11231;50.746;4.272;2023-09-08T15:33:59;33.20;91.80